Lincolnville, Kansas
Current Conditions -  °F | °C
As of 11:15 PM on Friday 19 Dec 2014 (Local Time) from KEWK Reporting Station
Overcast Overcast  
Wind Chill: 29°   Ceiling: 1500
Heat Index: 36°   Visibility: 8mi
Dew Point: 30°   Wind: 9mph
Humidity: 81%   Direction: 190°S
Pressure: 30.16"   Gusts: NA
Location:  38.49°N, 96.96°W
Report Text: KEWK 200515Z AUTO 19008KT 8SM OVC015 02/M01 A3016 RMK AO1
Loading
Personal Weather Stations






























Interactive Weather Map New forecast layout! Learn more

10-Day Weather Forecast

Advertisements
Track Severe Weather on mobile